This is the latest recevied weather packets stored in our database for station/object KC9DRE. If no packets are shown the sender has not sent any weather packets the latest 10 day(s).
| Time | Temp. | Humidity | Pressure | Rain* | Wind** | Luminosity | Snow |
|---|---|---|---|---|---|---|---|
| 1788101619 | 31.11° C | 61% | 1020.7 hPa | 0 mm | - | 572 W/m² | - |
| 1788101315 | 31.11° C | 59% | 1020.7 hPa | 0 mm | - | 521 W/m² | - |
| 1788101011 | 30.56° C | 62% | 1020.6 hPa | 0 mm | - | 522 W/m² | - |
| 1788100706 | 30° C | 63% | 1020.7 hPa | 0 mm | - | 498 W/m² | - |
| 1788100406 | 30° C | 63% | 1020.6 hPa | 0 mm | - | 464 W/m² | - |
| 1788100106 | 29.44° C | 63% | 1020.3 hPa | 0 mm | - | 483 W/m² | - |
| 1788099801 | 29.44° C | 62% | 1020.3 hPa | 0 mm | - | 469 W/m² | - |
| 1788099496 | 28.89° C | 67% | 1020.5 hPa | 0 mm | - | 456 W/m² | - |
| 1788099191 | 28.89° C | 64% | 1020.3 hPa | 0 mm | - | 439 W/m² | - |
| 1788098886 | 28.33° C | 67% | 1020.5 hPa | 0 mm | - | 423 W/m² | - |
| 1788098581 | 28.33° C | 68% | 1020.3 hPa | 0 mm | - | 407 W/m² | - |
| 1788098276 | 28.33° C | 65% | 1020.5 hPa | 0 mm | - | 389 W/m² | - |
| 1788097971 | 28.33° C | 68% | 1020.1 hPa | 0 mm | - | 373 W/m² | - |
| 1788097667 | 28.33° C | 65% | 1020.2 hPa | 0 mm | - | 352 W/m² | - |
| 1788097367 | 27.78° C | 71% | 1020.1 hPa | 0 mm | - | 367 W/m² | - |
| 1788097063 | 27.22° C | 70% | 1020.2 hPa | 0 mm | - | 353 W/m² | - |
| 1788096758 | 27.22° C | 73% | 1020 hPa | 0 mm | - | 332 W/m² | - |
| 1788096454 | 26.67° C | 74% | 1020.2 hPa | 0 mm | - | 325 W/m² | - |
| 1788096149 | 26.11° C | 77% | 1020.1 hPa | 0 mm | - | 321 W/m² | - |
| 1788095848 | 25.56° C | 82% | 1020.1 hPa | 0 mm | - | 253 W/m² | - |
| 1788095543 | 25° C | 84% | 1020.2 hPa | 0 mm | - | 178 W/m² | - |
| 1788095239 | 23.89° C | 86% | 1019.9 hPa | 0 mm | - | 140 W/m² | - |
| 1788094938 | 23.33° C | 88% | 1020.1 hPa | 0 mm | - | 118 W/m² | - |
| 1788094638 | 22.78° C | 92% | 1020 hPa | 0 mm | - | 106 W/m² | - |
| 1788094333 | 22.22° C | 96% | 1019.9 hPa | 0 mm | - | 97 W/m² | - |
* Rain latest hour (hover to see other rain measurements)
** Current wind speed in m/s (hover to see current wind gust speed)